Sinton, TX (78387)

11:59 CDT le 06 juillet 2015 (GMT -0500)
Harlan's Annaville Weather Station | | Change Station
CLOSE
Current Station
Stations météorologiques personnelles
Location: Corpus Christi, TX
Altitude: 75 ft
Stations météo à proximité

Alt. 75 ft 27.85 °N, 97.60 °W | Updated 6 seconds ago

Partiellement nuageux
Partiellement nuageux
92.1 ° F
Paraît 106 ° F
N
14.8
Vent Variable Vent de SSE
Gusts 18.3 mph

Aujourd'hui
Haut(e) -- | Bas -- ° F
--% Risque de précip.
Hier
Haut(e) -- | Bas -- ° F
Precip. -- pouce
6:39 AM 8:30 PM
Lune gibbeuse décroissante, 74% visible
Pression 30.05 pouce
Visibilité 10.0 Miles terrestres
Nuages Nuages épars 2800 ft
Nuages épars 3900 ft
Nuageux 25000 ft
indice de chaleur 106 ° F
Point de rosée 77 ° F
Humidité 61%
Précipitations 0.00 pouce
Profondeur de la couche neigeuse Non disponible.
UV 6 sur 12
Pollen 4.30 sur 12
Qualité de l'air Non disponible.
Flu Activity Non disponible.
METAR KCRP 061651Z 16021G29KT 10SM SCT028 SCT039 BKN250 32/22 A3005 RMK AO2 PK WND 15030/1633 SLP174 T03220222 $

More Conditions Fewer Conditions

Pression 30.05 pouce
Visibilité 10.0 Miles terrestres
Nuages Nuages épars 2800 ft
Nuages épars 3900 ft
Nuageux 25000 ft
indice de chaleur 106 ° F
Point de rosée 77 ° F
Humidité 61%
Précipitations 0.00 pouce
Profondeur de la couche neigeuse Non disponible.
UV 6 sur 12
Pollen 4.30 sur 12
Qualité de l'air Non disponible.
Flu Activity Non disponible.
METAR KCRP 061651Z 16021G29KT 10SM SCT028 SCT039 BKN250 32/22 A3005 RMK AO2 PK WND 15030/1633 SLP174 T03220222 $

More Conditions Fewer Conditions

Nowcast | as of 11:09 am CDT on July 6, 2015

Through 1 PM...light rain and isolated showers will continue to affect portions of the coastal Bend and the middle Texas coastal waters. Trace amounts will be possible over land...and any rainfall will be short lived.

×

10-Day Weather Forecast

×

Almanac

Astronomie

Jul. 06, 2015 Lever Coucher
Temps réel
Crépuscule civil
Crépuscule nautique
Crépuscule astronomique
Lune
Durée de lumière visible
Longueur du jour
Tomorrow will be .
, % of the Moon is Illuminated

Extrêmes aujourd'hui

State Highs State Lows

Community

WunderPhotos

Upload Photos

1,835,599 Photos téléchargées !

WunderBlogs® & News

Nearby

Qualité de l'air

  Qualité de l'air Indice de la qualité de l'air Polluant
Not available.

Épaisseur de neige

Station Depth Altitude

Activité sismique

Ville Distance Mag. Time & Date
Minimum magnitude displayed is 2.5.

Températures des eaux côtières

Lieu Température

Stations

Stations météo à proximité

Emplacement de la station Température Refroidissement éolien Point de rosée Humidité Vent Precip. Alt. Mise à jour Type